createdAt,value
2023-04-13T00:04:39.232Z,8.39
2023-04-13T00:09:41.670Z,8.41
2023-04-13T00:14:43.917Z,8.42
2023-04-13T00:19:47.899Z,8.38
2023-04-13T00:24:49.709Z,8.33
2023-04-13T00:29:51.473Z,8.28
2023-04-13T00:34:53.126Z,8.26
2023-04-13T00:39:55.168Z,8.41
2023-04-13T00:44:56.739Z,8.45
2023-04-13T00:50:01.371Z,8.38
2023-04-13T00:55:02.983Z,8.36
2023-04-13T01:00:12.775Z,8.25
2023-04-13T01:05:16.298Z,8.15
2023-04-13T01:10:36.517Z,8.08
2023-04-13T01:15:57.425Z,7.98
2023-04-13T01:21:00.157Z,7.92
2023-04-13T01:26:08.496Z,7.79
2023-04-13T01:31:13.832Z,7.67
2023-04-13T01:36:16.838Z,7.62
2023-04-13T01:41:18.982Z,7.55
2023-04-13T01:46:26.490Z,7.48
2023-04-13T01:51:32.307Z,7.39
2023-04-13T01:56:34.466Z,7.27
2023-04-13T02:01:38.033Z,7.22
2023-04-13T02:06:39.530Z,7.23
2023-04-13T02:11:41.000Z,7.30
2023-04-13T02:16:42.404Z,7.41
2023-04-13T02:21:43.856Z,7.47
2023-04-13T02:26:45.355Z,7.53
2023-04-13T02:31:46.777Z,7.60
2023-04-13T02:36:48.457Z,7.74
2023-04-13T02:41:51.120Z,7.89
2023-04-13T02:46:52.501Z,8.05
2023-04-13T02:51:53.872Z,8.21
2023-04-13T02:56:55.964Z,8.31
2023-04-13T03:01:58.920Z,8.44
2023-04-13T03:07:00.358Z,8.60
2023-04-13T03:12:02.803Z,8.72
2023-04-13T03:17:04.505Z,8.83
2023-04-13T03:22:06.044Z,8.89
2023-04-13T03:27:07.522Z,8.99
2023-04-13T03:32:08.998Z,9.06
2023-04-13T03:37:11.606Z,9.14
2023-04-13T03:42:13.064Z,9.15
2023-04-13T03:47:14.495Z,9.13
2023-04-13T03:52:16.146Z,9.14
2023-04-13T03:57:17.529Z,9.25
2023-04-13T04:02:19.190Z,9.32
2023-04-13T04:07:23.272Z,9.34
2023-04-13T04:12:24.708Z,9.42
2023-04-13T04:17:28.253Z,9.55
2023-04-13T04:22:30.243Z,9.65
2023-04-13T04:27:37.774Z,9.73
2023-04-13T04:32:40.394Z,9.86
2023-04-13T04:37:41.789Z,9.98
2023-04-13T04:42:43.172Z,10.02
2023-04-13T04:47:44.741Z,10.03
2023-04-13T04:52:46.261Z,10.10
2023-04-13T04:57:49.781Z,10.13
2023-04-13T05:02:51.401Z,10.09
2023-04-13T05:07:53.097Z,10.13
2023-04-13T05:12:56.467Z,10.14
2023-04-13T05:17:58.669Z,10.13
2023-04-13T05:23:01.069Z,10.19
2023-04-13T05:28:02.469Z,10.29
2023-04-13T05:33:06.509Z,10.23
2023-04-13T05:38:08.218Z,10.26
2023-04-13T05:43:09.611Z,10.31
2023-04-13T05:48:11.100Z,10.29
2023-04-13T05:53:12.694Z,10.37
2023-04-13T05:58:14.073Z,10.40
2023-04-13T06:03:15.963Z,10.41
2023-04-13T06:08:17.549Z,10.41
2023-04-13T06:13:19.339Z,10.48
2023-04-13T06:18:20.714Z,10.46
2023-04-13T06:23:22.220Z,10.44
2023-04-13T06:28:28.901Z,10.39
2023-04-13T06:33:31.509Z,10.36
2023-04-13T06:38:32.899Z,10.31
2023-04-13T06:43:34.339Z,10.38
2023-04-13T06:48:35.916Z,10.44
2023-04-13T06:53:37.347Z,10.39
2023-04-13T06:58:38.688Z,10.41
2023-04-13T07:03:40.387Z,10.45
2023-04-13T07:08:42.047Z,10.51
2023-04-13T07:13:43.553Z,10.52
2023-04-13T07:18:44.918Z,10.65
2023-04-13T07:23:46.334Z,10.64
2023-04-13T07:28:47.754Z,10.58
2023-04-13T07:33:49.174Z,10.47
2023-04-13T07:38:50.579Z,10.52
2023-04-13T07:43:52.024Z,10.52
2023-04-13T07:48:53.953Z,10.61
2023-04-13T07:53:55.584Z,10.59
2023-04-13T07:58:57.243Z,10.64
2023-04-13T08:03:59.047Z,10.82
2023-04-13T08:09:00.883Z,10.91
2023-04-13T08:14:02.469Z,10.86
2023-04-13T08:19:03.875Z,10.91
2023-04-13T08:24:06.280Z,11.00
2023-04-13T08:29:07.812Z,10.94
2023-04-13T08:34:11.525Z,10.77
2023-04-13T08:39:13.530Z,10.75
2023-04-13T08:44:16.103Z,10.71
2023-04-13T08:49:18.011Z,10.70
2023-04-13T08:54:19.377Z,10.83
2023-04-13T08:59:22.486Z,11.06
2023-04-13T09:04:31.834Z,11.24
2023-04-13T09:09:38.080Z,11.23
2023-04-13T09:14:40.990Z,11.58
2023-04-13T09:19:42.370Z,11.60
2023-04-13T09:24:44.106Z,11.75
2023-04-13T09:29:49.510Z,11.71
2023-04-13T09:35:20.411Z,11.45
2023-04-13T09:40:22.228Z,11.32
2023-04-13T09:45:23.765Z,11.46
2023-04-13T09:50:29.201Z,11.76
2023-04-13T09:55:32.910Z,12.24
2023-04-13T10:00:35.257Z,12.19
2023-04-13T10:05:50.622Z,12.63
2023-04-13T10:11:01.601Z,13.02
2023-04-13T10:16:36.851Z,12.96
2023-04-13T10:21:41.024Z,13.22
2023-04-13T10:26:45.169Z,13.42
2023-04-13T10:31:48.353Z,13.68
2023-04-13T10:36:51.627Z,13.99
2023-04-13T10:42:06.716Z,14.33
2023-04-13T10:47:08.531Z,14.35
2023-04-13T10:52:11.497Z,14.34
2023-04-13T10:57:13.398Z,14.56
2023-04-13T11:02:16.590Z,14.28
2023-04-13T11:07:21.818Z,14.95
2023-04-13T11:12:23.234Z,15.19
2023-04-13T11:17:24.764Z,15.06
2023-04-13T11:22:28.529Z,15.06
2023-04-13T11:27:29.890Z,14.77
2023-04-13T11:32:35.136Z,15.15
2023-04-13T11:37:44.277Z,15.07
2023-04-13T11:42:47.755Z,15.25
2023-04-13T11:47:51.059Z,15.14
2023-04-13T11:52:57.028Z,15.07
2023-04-13T11:57:58.662Z,14.01
2023-04-13T12:03:02.855Z,13.69
2023-04-13T12:08:06.280Z,13.47
2023-04-13T12:18:23.620Z,13.93
2023-04-13T12:23:29.711Z,14.46
2023-04-13T12:28:35.238Z,15.27
2023-04-13T12:33:37.108Z,16.09
2023-04-13T12:38:39.134Z,16.15
2023-04-13T12:43:40.878Z,15.94
2023-04-13T12:48:42.702Z,15.29
2023-04-13T12:53:44.157Z,14.66
2023-04-13T12:58:45.560Z,14.29
2023-04-13T13:03:47.038Z,14.16
2023-04-13T13:08:50.711Z,14.13
2023-04-13T13:13:52.168Z,13.27
2023-04-13T13:18:53.642Z,11.74
2023-04-13T13:23:55.264Z,10.45
2023-04-13T13:28:56.685Z,10.08
2023-04-13T13:33:58.048Z,9.91
2023-04-13T13:39:00.072Z,9.86
2023-04-13T13:44:01.730Z,9.90
2023-04-13T13:49:03.432Z,10.25
2023-04-13T13:54:04.998Z,10.31
2023-04-13T13:59:06.351Z,10.62
2023-04-13T14:04:07.928Z,10.84
2023-04-13T14:09:09.565Z,11.21
2023-04-13T14:14:20.965Z,11.39
2023-04-13T14:19:23.480Z,11.53
2023-04-13T14:24:26.487Z,11.72
2023-04-13T14:29:27.977Z,11.93
2023-04-13T14:34:29.419Z,12.14
2023-04-13T14:39:31.050Z,12.43
2023-04-13T14:44:32.441Z,13.23
2023-04-13T14:49:34.039Z,14.09
2023-04-13T14:54:35.496Z,14.67
2023-04-13T14:59:37.363Z,15.02
2023-04-13T15:04:42.368Z,15.46
2023-04-13T15:09:43.816Z,15.53
2023-04-13T15:14:46.632Z,15.50
2023-04-13T15:19:48.093Z,15.24
2023-04-13T15:24:49.540Z,14.61
2023-04-13T15:29:58.510Z,13.84
2023-04-13T15:34:59.915Z,12.23
2023-04-13T15:40:01.502Z,12.35
2023-04-13T15:45:03.320Z,12.47
2023-04-13T15:50:05.249Z,12.41
2023-04-13T15:55:07.787Z,11.93
2023-04-13T16:00:09.752Z,11.90
2023-04-13T16:05:12.612Z,11.97
2023-04-13T16:10:16.097Z,11.95
2023-04-13T16:15:19.293Z,11.93
2023-04-13T16:20:21.868Z,11.75
2023-04-13T16:25:23.789Z,11.89
2023-04-13T16:30:25.188Z,11.99
2023-04-13T16:35:26.705Z,12.11
2023-04-13T16:40:28.245Z,11.94
2023-04-13T16:45:29.618Z,11.57
2023-04-13T16:50:32.382Z,11.57
2023-04-13T16:55:34.081Z,11.66
2023-04-13T17:00:35.761Z,11.54
2023-04-13T17:05:37.353Z,11.46
2023-04-13T17:10:38.869Z,11.26
2023-04-13T17:15:40.537Z,11.27
2023-04-13T17:20:42.107Z,11.31
2023-04-13T17:25:43.637Z,11.40
2023-04-13T17:30:45.159Z,11.34
2023-04-13T17:35:46.557Z,11.32
2023-04-13T17:40:47.998Z,11.36
2023-04-13T17:45:49.415Z,11.38
2023-04-13T17:50:51.568Z,11.40
2023-04-13T17:55:52.966Z,11.48
2023-04-13T18:00:54.336Z,11.53
2023-04-13T18:05:55.809Z,11.57
2023-04-13T18:10:59.284Z,11.52
2023-04-13T18:16:01.264Z,11.49
2023-04-13T18:21:02.658Z,11.47
2023-04-13T18:26:04.190Z,11.45
2023-04-13T18:31:05.680Z,11.38
2023-04-13T18:36:07.354Z,11.32
2023-04-13T18:41:09.046Z,11.30
2023-04-13T18:46:11.791Z,11.26
2023-04-13T18:51:13.319Z,11.19
2023-04-13T18:56:14.688Z,11.18
2023-04-13T19:01:19.940Z,11.12
2023-04-13T19:06:21.563Z,10.96
2023-04-13T19:11:27.317Z,11.01
2023-04-13T19:16:28.975Z,11.02
2023-04-13T19:21:31.099Z,10.97
2023-04-13T19:26:32.524Z,10.96
2023-04-13T19:31:37.738Z,10.75
2023-04-13T19:36:40.383Z,10.57
2023-04-13T19:41:42.883Z,10.58
2023-04-13T19:46:44.506Z,10.58
2023-04-13T19:51:46.425Z,10.50
2023-04-13T19:56:48.249Z,10.44
2023-04-13T20:01:49.777Z,10.39
2023-04-13T20:06:51.742Z,10.11
2023-04-13T20:11:53.428Z,9.99
2023-04-13T20:16:54.841Z,10.05
2023-04-13T20:21:57.706Z,10.02
2023-04-13T20:26:59.130Z,10.10
2023-04-13T20:32:00.547Z,10.13
2023-04-13T20:37:02.075Z,10.09
2023-04-13T20:42:08.137Z,10.12
2023-04-13T20:47:13.260Z,10.12
2023-04-13T20:52:17.872Z,9.91
2023-04-13T20:57:20.039Z,9.92
2023-04-13T21:02:21.902Z,9.96
2023-04-13T21:07:23.963Z,10.08
2023-04-13T21:12:26.498Z,10.06
2023-04-13T21:17:27.972Z,10.16
2023-04-13T21:22:29.970Z,10.16
2023-04-13T21:27:31.743Z,10.21
2023-04-13T21:32:33.333Z,10.18
2023-04-13T21:37:34.909Z,10.14
2023-04-13T21:42:37.122Z,10.10
2023-04-13T21:47:38.654Z,10.09
2023-04-13T21:52:40.440Z,10.08
2023-04-13T21:57:41.840Z,10.03
2023-04-13T22:02:43.721Z,10.01
2023-04-13T22:07:45.220Z,9.99
2023-04-13T22:12:46.648Z,9.96
2023-04-13T22:17:48.860Z,9.92
2023-04-13T22:22:50.293Z,9.93
2023-04-13T22:27:53.374Z,9.72
2023-04-13T22:32:56.719Z,9.53
2023-04-13T22:37:58.241Z,9.51
2023-04-13T22:42:59.631Z,9.51
2023-04-13T22:48:01.223Z,9.49
2023-04-13T22:53:02.698Z,9.50
2023-04-13T22:58:04.271Z,9.49
2023-04-13T23:03:05.880Z,9.43
2023-04-13T23:08:07.608Z,9.44
2023-04-13T23:13:09.452Z,9.41
2023-04-13T23:18:10.918Z,9.35
2023-04-13T23:23:12.312Z,9.26
2023-04-13T23:28:13.731Z,9.21
2023-04-13T23:33:15.474Z,9.14
2023-04-13T23:38:16.879Z,9.08
2023-04-13T23:43:18.260Z,9.04
2023-04-13T23:48:21.457Z,8.96
2023-04-13T23:53:23.509Z,8.98
2023-04-13T23:58:24.869Z,8.98
